sensor_id;sensor_type;location;lat;lon;timestamp;P1;durP1;ratioP1;P2;durP2;ratioP2
5414;SDS011;2730;51.512;7.504;2024-01-06T00:00:05;8.88;;;5.50;;
5414;SDS011;2730;51.512;7.504;2024-01-06T00:02:33;14.20;;;6.35;;
5414;SDS011;2730;51.512;7.504;2024-01-06T00:05:07;5.32;;;4.75;;
5414;SDS011;2730;51.512;7.504;2024-01-06T00:07:34;9.82;;;5.28;;
5414;SDS011;2730;51.512;7.504;2024-01-06T00:10:01;14.45;;;5.85;;
5414;SDS011;2730;51.512;7.504;2024-01-06T00:12:29;12.18;;;5.95;;
5414;SDS011;2730;51.512;7.504;2024-01-06T00:14:57;10.20;;;5.40;;
5414;SDS011;2730;51.512;7.504;2024-01-06T00:17:26;9.48;;;5.30;;
5414;SDS011;2730;51.512;7.504;2024-01-06T00:19:53;8.85;;;5.68;;
5414;SDS011;2730;51.512;7.504;2024-01-06T00:22:20;9.27;;;5.55;;
5414;SDS011;2730;51.512;7.504;2024-01-06T00:24:49;15.75;;;7.18;;
5414;SDS011;2730;51.512;7.504;2024-01-06T00:27:15;11.30;;;6.80;;
5414;SDS011;2730;51.512;7.504;2024-01-06T00:29:42;8.80;;;5.38;;
5414;SDS011;2730;51.512;7.504;2024-01-06T00:32:10;8.07;;;5.78;;
5414;SDS011;2730;51.512;7.504;2024-01-06T00:34:37;12.05;;;5.53;;
5414;SDS011;2730;51.512;7.504;2024-01-06T00:37:04;9.63;;;6.78;;
5414;SDS011;2730;51.512;7.504;2024-01-06T00:39:33;10.30;;;6.63;;
5414;SDS011;2730;51.512;7.504;2024-01-06T00:41:59;13.48;;;6.63;;
5414;SDS011;2730;51.512;7.504;2024-01-06T00:44:27;7.25;;;5.38;;
5414;SDS011;2730;51.512;7.504;2024-01-06T00:46:54;12.77;;;6.43;;
5414;SDS011;2730;51.512;7.504;2024-01-06T00:49:23;13.27;;;7.57;;
5414;SDS011;2730;51.512;7.504;2024-01-06T00:51:50;13.70;;;7.32;;
5414;SDS011;2730;51.512;7.504;2024-01-06T00:54:17;10.77;;;7.20;;
5414;SDS011;2730;51.512;7.504;2024-01-06T00:56:44;12.18;;;6.43;;
5414;SDS011;2730;51.512;7.504;2024-01-06T00:59:11;14.40;;;7.05;;
5414;SDS011;2730;51.512;7.504;2024-01-06T01:01:37;12.02;;;7.00;;
5414;SDS011;2730;51.512;7.504;2024-01-06T01:04:04;12.10;;;6.65;;
5414;SDS011;2730;51.512;7.504;2024-01-06T01:06:32;11.48;;;7.28;;
5414;SDS011;2730;51.512;7.504;2024-01-06T01:08:59;10.32;;;6.28;;
5414;SDS011;2730;51.512;7.504;2024-01-06T01:11:26;12.63;;;5.90;;
5414;SDS011;2730;51.512;7.504;2024-01-06T01:13:54;13.05;;;8.30;;
5414;SDS011;2730;51.512;7.504;2024-01-06T01:16:21;16.35;;;7.55;;
5414;SDS011;2730;51.512;7.504;2024-01-06T01:18:48;18.25;;;8.55;;
5414;SDS011;2730;51.512;7.504;2024-01-06T01:21:15;14.07;;;7.95;;
5414;SDS011;2730;51.512;7.504;2024-01-06T01:23:43;18.15;;;8.52;;
5414;SDS011;2730;51.512;7.504;2024-01-06T01:26:10;17.00;;;7.57;;
5414;SDS011;2730;51.512;7.504;2024-01-06T01:28:37;17.35;;;8.43;;
5414;SDS011;2730;51.512;7.504;2024-01-06T01:31:04;20.55;;;8.80;;
5414;SDS011;2730;51.512;7.504;2024-01-06T01:33:31;15.75;;;7.30;;
5414;SDS011;2730;51.512;7.504;2024-01-06T01:35:57;14.45;;;7.88;;
5414;SDS011;2730;51.512;7.504;2024-01-06T01:38:24;12.95;;;7.20;;
5414;SDS011;2730;51.512;7.504;2024-01-06T01:40:53;13.45;;;6.90;;
5414;SDS011;2730;51.512;7.504;2024-01-06T01:43:20;20.67;;;8.25;;
5414;SDS011;2730;51.512;7.504;2024-01-06T01:45:48;16.85;;;8.02;;
5414;SDS011;2730;51.512;7.504;2024-01-06T01:48:19;15.02;;;8.23;;
5414;SDS011;2730;51.512;7.504;2024-01-06T01:50:47;14.75;;;7.50;;
5414;SDS011;2730;51.512;7.504;2024-01-06T01:53:16;18.08;;;8.80;;
5414;SDS011;2730;51.512;7.504;2024-01-06T01:55:43;16.17;;;7.40;;
5414;SDS011;2730;51.512;7.504;2024-01-06T01:58:12;14.13;;;7.20;;
5414;SDS011;2730;51.512;7.504;2024-01-06T02:00:41;18.15;;;8.40;;
5414;SDS011;2730;51.512;7.504;2024-01-06T02:03:08;20.42;;;8.35;;
5414;SDS011;2730;51.512;7.504;2024-01-06T02:05:37;11.82;;;6.25;;
5414;SDS011;2730;51.512;7.504;2024-01-06T02:08:04;14.13;;;7.95;;
5414;SDS011;2730;51.512;7.504;2024-01-06T02:10:32;14.50;;;7.85;;
5414;SDS011;2730;51.512;7.504;2024-01-06T02:13:06;12.32;;;7.35;;
5414;SDS011;2730;51.512;7.504;2024-01-06T02:15:35;15.70;;;7.43;;
5414;SDS011;2730;51.512;7.504;2024-01-06T02:18:03;18.58;;;8.57;;
5414;SDS011;2730;51.512;7.504;2024-01-06T02:20:32;19.92;;;8.70;;
5414;SDS011;2730;51.512;7.504;2024-01-06T02:23:00;12.77;;;6.75;;
5414;SDS011;2730;51.512;7.504;2024-01-06T02:25:27;19.67;;;8.65;;
5414;SDS011;2730;51.512;7.504;2024-01-06T02:27:54;18.27;;;8.80;;
5414;SDS011;2730;51.512;7.504;2024-01-06T02:30:22;15.15;;;8.20;;
5414;SDS011;2730;51.512;7.504;2024-01-06T02:32:49;16.77;;;7.65;;
5414;SDS011;2730;51.512;7.504;2024-01-06T02:35:16;13.75;;;7.15;;
5414;SDS011;2730;51.512;7.504;2024-01-06T02:37:42;17.13;;;7.88;;
5414;SDS011;2730;51.512;7.504;2024-01-06T02:40:13;13.82;;;7.75;;
5414;SDS011;2730;51.512;7.504;2024-01-06T02:42:40;22.55;;;7.57;;
5414;SDS011;2730;51.512;7.504;2024-01-06T02:45:09;19.25;;;7.90;;
5414;SDS011;2730;51.512;7.504;2024-01-06T02:47:36;22.15;;;8.85;;
5414;SDS011;2730;51.512;7.504;2024-01-06T02:50:03;16.52;;;8.20;;
5414;SDS011;2730;51.512;7.504;2024-01-06T02:52:32;17.42;;;7.88;;
5414;SDS011;2730;51.512;7.504;2024-01-06T02:54:59;16.25;;;7.40;;
5414;SDS011;2730;51.512;7.504;2024-01-06T02:57:27;16.15;;;7.05;;
5414;SDS011;2730;51.512;7.504;2024-01-06T02:59:55;19.67;;;8.40;;
5414;SDS011;2730;51.512;7.504;2024-01-06T03:02:22;18.13;;;8.10;;
5414;SDS011;2730;51.512;7.504;2024-01-06T03:04:49;15.98;;;7.10;;
5414;SDS011;2730;51.512;7.504;2024-01-06T03:07:18;17.13;;;7.65;;
5414;SDS011;2730;51.512;7.504;2024-01-06T03:09:45;17.60;;;7.68;;
5414;SDS011;2730;51.512;7.504;2024-01-06T03:12:13;19.13;;;7.80;;
5414;SDS011;2730;51.512;7.504;2024-01-06T03:14:42;16.08;;;8.93;;
5414;SDS011;2730;51.512;7.504;2024-01-06T03:17:09;15.40;;;8.38;;
5414;SDS011;2730;51.512;7.504;2024-01-06T03:19:36;17.60;;;8.15;;
5414;SDS011;2730;51.512;7.504;2024-01-06T03:22:03;21.67;;;8.45;;
5414;SDS011;2730;51.512;7.504;2024-01-06T03:24:31;23.55;;;9.30;;
5414;SDS011;2730;51.512;7.504;2024-01-06T03:26:58;19.30;;;9.35;;
5414;SDS011;2730;51.512;7.504;2024-01-06T03:29:24;21.10;;;8.85;;
5414;SDS011;2730;51.512;7.504;2024-01-06T03:31:53;15.02;;;7.95;;
5414;SDS011;2730;51.512;7.504;2024-01-06T03:34:21;17.98;;;7.68;;
5414;SDS011;2730;51.512;7.504;2024-01-06T03:36:47;20.90;;;8.25;;
5414;SDS011;2730;51.512;7.504;2024-01-06T03:39:14;22.30;;;8.25;;
5414;SDS011;2730;51.512;7.504;2024-01-06T03:41:41;17.88;;;7.57;;
5414;SDS011;2730;51.512;7.504;2024-01-06T03:44:08;19.88;;;8.15;;
5414;SDS011;2730;51.512;7.504;2024-01-06T03:46:37;18.27;;;7.93;;
5414;SDS011;2730;51.512;7.504;2024-01-06T03:49:05;19.33;;;7.70;;
5414;SDS011;2730;51.512;7.504;2024-01-06T03:51:32;19.67;;;7.35;;
5414;SDS011;2730;51.512;7.504;2024-01-06T03:53:58;18.70;;;9.00;;
5414;SDS011;2730;51.512;7.504;2024-01-06T03:56:25;20.70;;;7.53;;
5414;SDS011;2730;51.512;7.504;2024-01-06T03:58:52;21.77;;;7.80;;
5414;SDS011;2730;51.512;7.504;2024-01-06T04:01:20;25.00;;;8.65;;
5414;SDS011;2730;51.512;7.504;2024-01-06T04:03:47;28.95;;;8.52;;
5414;SDS011;2730;51.512;7.504;2024-01-06T04:06:15;17.98;;;8.02;;
5414;SDS011;2730;51.512;7.504;2024-01-06T04:08:42;24.60;;;8.60;;
5414;SDS011;2730;51.512;7.504;2024-01-06T04:11:11;20.63;;;8.65;;
5414;SDS011;2730;51.512;7.504;2024-01-06T04:13:38;25.35;;;10.73;;
5414;SDS011;2730;51.512;7.504;2024-01-06T04:16:05;13.75;;;7.80;;
5414;SDS011;2730;51.512;7.504;2024-01-06T04:18:34;20.05;;;7.10;;
5414;SDS011;2730;51.512;7.504;2024-01-06T04:21:01;19.52;;;7.65;;
5414;SDS011;2730;51.512;7.504;2024-01-06T04:23:31;20.85;;;8.15;;
5414;SDS011;2730;51.512;7.504;2024-01-06T04:25:58;27.90;;;8.50;;
5414;SDS011;2730;51.512;7.504;2024-01-06T04:28:25;24.35;;;7.65;;
5414;SDS011;2730;51.512;7.504;2024-01-06T04:30:52;21.02;;;8.57;;
5414;SDS011;2730;51.512;7.504;2024-01-06T04:33:20;15.73;;;7.00;;
5414;SDS011;2730;51.512;7.504;2024-01-06T04:35:47;19.02;;;7.57;;
5414;SDS011;2730;51.512;7.504;2024-01-06T04:38:15;13.95;;;7.00;;
5414;SDS011;2730;51.512;7.504;2024-01-06T04:40:43;21.38;;;7.45;;
5414;SDS011;2730;51.512;7.504;2024-01-06T04:43:10;16.27;;;7.00;;
5414;SDS011;2730;51.512;7.504;2024-01-06T04:45:37;19.23;;;7.90;;
5414;SDS011;2730;51.512;7.504;2024-01-06T04:48:06;19.25;;;7.70;;
5414;SDS011;2730;51.512;7.504;2024-01-06T04:50:33;19.60;;;7.80;;
5414;SDS011;2730;51.512;7.504;2024-01-06T04:53:01;15.70;;;7.43;;
5414;SDS011;2730;51.512;7.504;2024-01-06T04:55:28;15.85;;;6.95;;
5414;SDS011;2730;51.512;7.504;2024-01-06T04:57:57;20.95;;;7.57;;
5414;SDS011;2730;51.512;7.504;2024-01-06T05:00:24;20.15;;;8.18;;
5414;SDS011;2730;51.512;7.504;2024-01-06T05:02:52;12.13;;;5.95;;
5414;SDS011;2730;51.512;7.504;2024-01-06T05:05:19;19.67;;;6.80;;
5414;SDS011;2730;51.512;7.504;2024-01-06T05:07:48;18.55;;;7.97;;
5414;SDS011;2730;51.512;7.504;2024-01-06T05:10:15;14.95;;;6.85;;
5414;SDS011;2730;51.512;7.504;2024-01-06T05:12:43;17.58;;;6.70;;
5414;SDS011;2730;51.512;7.504;2024-01-06T05:15:11;22.23;;;7.93;;
5414;SDS011;2730;51.512;7.504;2024-01-06T05:17:38;17.45;;;7.35;;
5414;SDS011;2730;51.512;7.504;2024-01-06T05:20:07;19.17;;;7.82;;
5414;SDS011;2730;51.512;7.504;2024-01-06T05:22:34;23.63;;;8.00;;
5414;SDS011;2730;51.512;7.504;2024-01-06T05:25:01;21.80;;;7.60;;
5414;SDS011;2730;51.512;7.504;2024-01-06T05:27:27;17.00;;;7.25;;
5414;SDS011;2730;51.512;7.504;2024-01-06T05:29:54;21.27;;;7.18;;
5414;SDS011;2730;51.512;7.504;2024-01-06T05:32:22;18.67;;;7.70;;
5414;SDS011;2730;51.512;7.504;2024-01-06T05:34:50;18.27;;;7.65;;
5414;SDS011;2730;51.512;7.504;2024-01-06T05:37:17;21.92;;;9.23;;
5414;SDS011;2730;51.512;7.504;2024-01-06T05:39:43;20.30;;;7.60;;
5414;SDS011;2730;51.512;7.504;2024-01-06T05:42:10;20.23;;;7.78;;
5414;SDS011;2730;51.512;7.504;2024-01-06T05:44:39;17.60;;;7.88;;
5414;SDS011;2730;51.512;7.504;2024-01-06T05:47:06;17.08;;;7.40;;
5414;SDS011;2730;51.512;7.504;2024-01-06T05:49:35;16.35;;;6.43;;
5414;SDS011;2730;51.512;7.504;2024-01-06T05:52:02;16.58;;;6.25;;
5414;SDS011;2730;51.512;7.504;2024-01-06T05:54:29;18.83;;;7.50;;
5414;SDS011;2730;51.512;7.504;2024-01-06T05:56:56;21.48;;;8.85;;
5414;SDS011;2730;51.512;7.504;2024-01-06T05:59:23;19.15;;;7.90;;
5414;SDS011;2730;51.512;7.504;2024-01-06T06:01:49;17.98;;;6.75;;
5414;SDS011;2730;51.512;7.504;2024-01-06T06:04:18;20.85;;;7.68;;
5414;SDS011;2730;51.512;7.504;2024-01-06T06:06:46;21.13;;;8.25;;
5414;SDS011;2730;51.512;7.504;2024-01-06T06:09:13;23.40;;;9.43;;
5414;SDS011;2730;51.512;7.504;2024-01-06T06:11:40;19.25;;;8.48;;
5414;SDS011;2730;51.512;7.504;2024-01-06T06:14:08;16.95;;;6.88;;
5414;SDS011;2730;51.512;7.504;2024-01-06T06:16:38;17.38;;;7.47;;
5414;SDS011;2730;51.512;7.504;2024-01-06T06:19:05;17.80;;;7.13;;
5414;SDS011;2730;51.512;7.504;2024-01-06T06:21:33;21.42;;;8.35;;
5414;SDS011;2730;51.512;7.504;2024-01-06T06:24:02;22.88;;;8.07;;
5414;SDS011;2730;51.512;7.504;2024-01-06T06:26:29;23.15;;;8.40;;
5414;SDS011;2730;51.512;7.504;2024-01-06T06:28:57;21.42;;;7.30;;
5414;SDS011;2730;51.512;7.504;2024-01-06T06:31:24;21.48;;;8.13;;
5414;SDS011;2730;51.512;7.504;2024-01-06T06:33:52;22.35;;;6.72;;
5414;SDS011;2730;51.512;7.504;2024-01-06T06:36:19;15.20;;;6.32;;
5414;SDS011;2730;51.512;7.504;2024-01-06T06:38:46;25.42;;;7.47;;
5414;SDS011;2730;51.512;7.504;2024-01-06T06:41:14;13.77;;;5.57;;
5414;SDS011;2730;51.512;7.504;2024-01-06T06:43:42;22.40;;;7.13;;
5414;SDS011;2730;51.512;7.504;2024-01-06T06:46:09;20.88;;;7.10;;
5414;SDS011;2730;51.512;7.504;2024-01-06T06:48:35;18.55;;;7.28;;
5414;SDS011;2730;51.512;7.504;2024-01-06T06:51:02;24.20;;;7.85;;
5414;SDS011;2730;51.512;7.504;2024-01-06T06:53:29;21.67;;;7.20;;
5414;SDS011;2730;51.512;7.504;2024-01-06T06:55:56;17.65;;;7.00;;
5414;SDS011;2730;51.512;7.504;2024-01-06T06:58:24;18.63;;;7.55;;
5414;SDS011;2730;51.512;7.504;2024-01-06T07:00:51;22.83;;;7.78;;
5414;SDS011;2730;51.512;7.504;2024-01-06T07:03:22;15.63;;;7.05;;
5414;SDS011;2730;51.512;7.504;2024-01-06T07:05:49;21.42;;;6.88;;
5414;SDS011;2730;51.512;7.504;2024-01-06T07:08:16;13.75;;;7.28;;
5414;SDS011;2730;51.512;7.504;2024-01-06T07:10:43;20.15;;;7.07;;
5414;SDS011;2730;51.512;7.504;2024-01-06T07:13:10;16.20;;;6.22;;
5414;SDS011;2730;51.512;7.504;2024-01-06T07:15:39;14.30;;;5.35;;
5414;SDS011;2730;51.512;7.504;2024-01-06T07:18:06;15.95;;;5.82;;
5414;SDS011;2730;51.512;7.504;2024-01-06T07:20:33;15.82;;;6.88;;
5414;SDS011;2730;51.512;7.504;2024-01-06T07:23:00;18.65;;;6.95;;
5414;SDS011;2730;51.512;7.504;2024-01-06T07:25:28;16.45;;;6.55;;
5414;SDS011;2730;51.512;7.504;2024-01-06T07:27:55;15.82;;;6.70;;
5414;SDS011;2730;51.512;7.504;2024-01-06T07:30:22;18.10;;;6.82;;
5414;SDS011;2730;51.512;7.504;2024-01-06T07:32:51;17.35;;;6.22;;
5414;SDS011;2730;51.512;7.504;2024-01-06T07:35:17;20.17;;;7.20;;
5414;SDS011;2730;51.512;7.504;2024-01-06T07:37:45;18.30;;;6.90;;
5414;SDS011;2730;51.512;7.504;2024-01-06T07:40:12;16.38;;;6.68;;
5414;SDS011;2730;51.512;7.504;2024-01-06T07:42:41;19.75;;;7.80;;
5414;SDS011;2730;51.512;7.504;2024-01-06T07:45:08;18.20;;;8.48;;
5414;SDS011;2730;51.512;7.504;2024-01-06T07:47:36;15.45;;;6.53;;
5414;SDS011;2730;51.512;7.504;2024-01-06T07:50:05;18.48;;;8.38;;
5414;SDS011;2730;51.512;7.504;2024-01-06T07:52:33;19.00;;;7.35;;
5414;SDS011;2730;51.512;7.504;2024-01-06T07:55:02;22.20;;;8.02;;
5414;SDS011;2730;51.512;7.504;2024-01-06T07:57:29;21.33;;;7.15;;
5414;SDS011;2730;51.512;7.504;2024-01-06T07:59:56;20.35;;;6.68;;
5414;SDS011;2730;51.512;7.504;2024-01-06T08:02:23;22.33;;;7.25;;
5414;SDS011;2730;51.512;7.504;2024-01-06T08:04:50;23.25;;;8.35;;
5414;SDS011;2730;51.512;7.504;2024-01-06T08:07:18;22.33;;;6.95;;
5414;SDS011;2730;51.512;7.504;2024-01-06T08:09:48;19.45;;;6.90;;
5414;SDS011;2730;51.512;7.504;2024-01-06T08:12:14;17.77;;;7.25;;
5414;SDS011;2730;51.512;7.504;2024-01-06T08:14:41;16.52;;;7.32;;
5414;SDS011;2730;51.512;7.504;2024-01-06T08:17:08;17.83;;;6.47;;
5414;SDS011;2730;51.512;7.504;2024-01-06T08:19:35;22.17;;;7.90;;
5414;SDS011;2730;51.512;7.504;2024-01-06T08:22:02;19.38;;;6.78;;
5414;SDS011;2730;51.512;7.504;2024-01-06T08:24:30;23.33;;;7.57;;
5414;SDS011;2730;51.512;7.504;2024-01-06T08:26:57;20.50;;;7.40;;
5414;SDS011;2730;51.512;7.504;2024-01-06T08:29:25;22.88;;;8.45;;
5414;SDS011;2730;51.512;7.504;2024-01-06T08:31:52;22.08;;;8.27;;
5414;SDS011;2730;51.512;7.504;2024-01-06T08:34:19;28.40;;;9.52;;
5414;SDS011;2730;51.512;7.504;2024-01-06T08:36:48;32.58;;;8.65;;
5414;SDS011;2730;51.512;7.504;2024-01-06T08:39:15;27.05;;;8.25;;
5414;SDS011;2730;51.512;7.504;2024-01-06T08:41:44;23.15;;;7.28;;
5414;SDS011;2730;51.512;7.504;2024-01-06T08:44:11;30.00;;;9.25;;
5414;SDS011;2730;51.512;7.504;2024-01-06T08:46:38;31.42;;;9.18;;
5414;SDS011;2730;51.512;7.504;2024-01-06T08:49:05;24.75;;;9.45;;
5414;SDS011;2730;51.512;7.504;2024-01-06T08:51:31;24.90;;;8.95;;
5414;SDS011;2730;51.512;7.504;2024-01-06T08:53:58;24.73;;;7.00;;
5414;SDS011;2730;51.512;7.504;2024-01-06T08:56:25;25.02;;;8.23;;
5414;SDS011;2730;51.512;7.504;2024-01-06T08:58:54;22.33;;;7.97;;
5414;SDS011;2730;51.512;7.504;2024-01-06T09:01:22;24.35;;;8.55;;
5414;SDS011;2730;51.512;7.504;2024-01-06T09:03:50;17.77;;;7.57;;
5414;SDS011;2730;51.512;7.504;2024-01-06T09:06:17;24.27;;;7.57;;
5414;SDS011;2730;51.512;7.504;2024-01-06T09:08:43;14.68;;;5.85;;
5414;SDS011;2730;51.512;7.504;2024-01-06T09:11:10;20.90;;;5.40;;
5414;SDS011;2730;51.512;7.504;2024-01-06T09:13:37;15.95;;;6.43;;
5414;SDS011;2730;51.512;7.504;2024-01-06T09:16:06;15.18;;;5.03;;
5414;SDS011;2730;51.512;7.504;2024-01-06T09:18:34;14.35;;;4.40;;
5414;SDS011;2730;51.512;7.504;2024-01-06T09:21:00;11.05;;;5.10;;
5414;SDS011;2730;51.512;7.504;2024-01-06T09:23:28;13.90;;;5.93;;
5414;SDS011;2730;51.512;7.504;2024-01-06T09:25:56;8.88;;;4.47;;
5414;SDS011;2730;51.512;7.504;2024-01-06T09:28:23;12.60;;;5.50;;
5414;SDS011;2730;51.512;7.504;2024-01-06T09:30:50;15.63;;;5.00;;
5414;SDS011;2730;51.512;7.504;2024-01-06T09:33:22;11.18;;;5.57;;
5414;SDS011;2730;51.512;7.504;2024-01-06T09:35:48;10.93;;;5.00;;
5414;SDS011;2730;51.512;7.504;2024-01-06T09:38:15;16.42;;;5.22;;
5414;SDS011;2730;51.512;7.504;2024-01-06T09:40:43;12.20;;;4.90;;
5414;SDS011;2730;51.512;7.504;2024-01-06T09:43:10;10.82;;;4.50;;
5414;SDS011;2730;51.512;7.504;2024-01-06T09:45:38;11.13;;;5.13;;
5414;SDS011;2730;51.512;7.504;2024-01-06T09:48:10;9.43;;;5.32;;
5414;SDS011;2730;51.512;7.504;2024-01-06T09:50:42;13.70;;;4.82;;
5414;SDS011;2730;51.512;7.504;2024-01-06T09:53:10;13.50;;;4.63;;
5414;SDS011;2730;51.512;7.504;2024-01-06T09:55:38;14.32;;;5.65;;
5414;SDS011;2730;51.512;7.504;2024-01-06T09:58:05;11.45;;;4.93;;
5414;SDS011;2730;51.512;7.504;2024-01-06T10:00:32;20.13;;;5.45;;
5414;SDS011;2730;51.512;7.504;2024-01-06T10:03:00;12.23;;;5.05;;
5414;SDS011;2730;51.512;7.504;2024-01-06T10:05:27;16.38;;;5.55;;
5414;SDS011;2730;51.512;7.504;2024-01-06T10:07:55;17.60;;;5.13;;
5414;SDS011;2730;51.512;7.504;2024-01-06T10:10:22;12.32;;;5.60;;
5414;SDS011;2730;51.512;7.504;2024-01-06T10:12:52;11.27;;;4.60;;
5414;SDS011;2730;51.512;7.504;2024-01-06T10:15:20;12.20;;;5.75;;
5414;SDS011;2730;51.512;7.504;2024-01-06T10:17:47;10.35;;;4.68;;
5414;SDS011;2730;51.512;7.504;2024-01-06T10:20:15;13.60;;;4.85;;
5414;SDS011;2730;51.512;7.504;2024-01-06T10:22:43;12.88;;;3.92;;
5414;SDS011;2730;51.512;7.504;2024-01-06T10:25:11;13.18;;;5.20;;
5414;SDS011;2730;51.512;7.504;2024-01-06T10:27:40;8.90;;;3.65;;
5414;SDS011;2730;51.512;7.504;2024-01-06T10:30:08;11.13;;;5.53;;
5414;SDS011;2730;51.512;7.504;2024-01-06T10:32:36;13.30;;;4.00;;
5414;SDS011;2730;51.512;7.504;2024-01-06T10:35:05;14.90;;;5.07;;
5414;SDS011;2730;51.512;7.504;2024-01-06T10:37:33;9.80;;;4.50;;
5414;SDS011;2730;51.512;7.504;2024-01-06T10:40:09;10.25;;;4.15;;
5414;SDS011;2730;51.512;7.504;2024-01-06T10:42:43;17.90;;;5.75;;
5414;SDS011;2730;51.512;7.504;2024-01-06T10:45:12;16.77;;;5.93;;
5414;SDS011;2730;51.512;7.504;2024-01-06T10:47:41;15.02;;;5.15;;
5414;SDS011;2730;51.512;7.504;2024-01-06T10:50:09;17.63;;;6.35;;
5414;SDS011;2730;51.512;7.504;2024-01-06T10:52:37;14.95;;;6.03;;
5414;SDS011;2730;51.512;7.504;2024-01-06T10:55:04;20.60;;;7.68;;
5414;SDS011;2730;51.512;7.504;2024-01-06T10:57:34;13.13;;;5.60;;
5414;SDS011;2730;51.512;7.504;2024-01-06T11:00:06;16.33;;;6.93;;
5414;SDS011;2730;51.512;7.504;2024-01-06T11:02:35;14.75;;;5.90;;
5414;SDS011;2730;51.512;7.504;2024-01-06T11:05:02;17.23;;;6.68;;
5414;SDS011;2730;51.512;7.504;2024-01-06T11:07:32;19.83;;;7.10;;
5414;SDS011;2730;51.512;7.504;2024-01-06T11:10:02;22.63;;;7.50;;
5414;SDS011;2730;51.512;7.504;2024-01-06T11:12:34;18.88;;;6.28;;
5414;SDS011;2730;51.512;7.504;2024-01-06T11:15:01;17.98;;;7.88;;
5414;SDS011;2730;51.512;7.504;2024-01-06T11:20:15;19.67;;;7.60;;
5414;SDS011;2730;51.512;7.504;2024-01-06T11:22:41;24.13;;;8.02;;
5414;SDS011;2730;51.512;7.504;2024-01-06T11:25:09;18.73;;;6.05;;
5414;SDS011;2730;51.512;7.504;2024-01-06T11:27:43;22.55;;;7.13;;
5414;SDS011;2730;51.512;7.504;2024-01-06T11:30:22;22.33;;;7.43;;
5414;SDS011;2730;51.512;7.504;2024-01-06T11:32:51;16.70;;;8.02;;
5414;SDS011;2730;51.512;7.504;2024-01-06T11:35:19;18.40;;;8.23;;
5414;SDS011;2730;51.512;7.504;2024-01-06T11:37:52;17.75;;;7.05;;
5414;SDS011;2730;51.512;7.504;2024-01-06T11:40:24;15.63;;;6.57;;
5414;SDS011;2730;51.512;7.504;2024-01-06T11:42:59;13.95;;;5.68;;
5414;SDS011;2730;51.512;7.504;2024-01-06T11:45:27;14.45;;;6.20;;
5414;SDS011;2730;51.512;7.504;2024-01-06T11:47:55;20.70;;;6.78;;
5414;SDS011;2730;51.512;7.504;2024-01-06T11:50:23;23.27;;;7.65;;
5414;SDS011;2730;51.512;7.504;2024-01-06T11:52:51;23.73;;;8.50;;
5414;SDS011;2730;51.512;7.504;2024-01-06T11:55:19;17.48;;;6.70;;
5414;SDS011;2730;51.512;7.504;2024-01-06T11:57:47;21.98;;;8.50;;
5414;SDS011;2730;51.512;7.504;2024-01-06T12:00:16;26.90;;;10.82;;
5414;SDS011;2730;51.512;7.504;2024-01-06T12:02:43;26.95;;;7.78;;
5414;SDS011;2730;51.512;7.504;2024-01-06T12:05:14;26.85;;;8.00;;
5414;SDS011;2730;51.512;7.504;2024-01-06T12:07:43;23.88;;;9.35;;
5414;SDS011;2730;51.512;7.504;2024-01-06T12:10:10;30.98;;;10.43;;
5414;SDS011;2730;51.512;7.504;2024-01-06T12:12:39;22.05;;;8.63;;
5414;SDS011;2730;51.512;7.504;2024-01-06T12:15:06;26.88;;;10.52;;
5414;SDS011;2730;51.512;7.504;2024-01-06T12:17:36;31.05;;;10.43;;
5414;SDS011;2730;51.512;7.504;2024-01-06T12:20:07;23.88;;;8.20;;
5414;SDS011;2730;51.512;7.504;2024-01-06T12:22:35;29.65;;;9.00;;
5414;SDS011;2730;51.512;7.504;2024-01-06T12:25:02;19.23;;;8.55;;
5414;SDS011;2730;51.512;7.504;2024-01-06T12:27:31;43.10;;;12.15;;
5414;SDS011;2730;51.512;7.504;2024-01-06T12:29:57;36.80;;;9.88;;
5414;SDS011;2730;51.512;7.504;2024-01-06T12:32:25;25.15;;;7.38;;
5414;SDS011;2730;51.512;7.504;2024-01-06T12:34:56;20.95;;;8.25;;
5414;SDS011;2730;51.512;7.504;2024-01-06T12:37:24;22.52;;;7.70;;
5414;SDS011;2730;51.512;7.504;2024-01-06T12:39:51;27.23;;;10.32;;
5414;SDS011;2730;51.512;7.504;2024-01-06T12:42:17;25.02;;;9.15;;
5414;SDS011;2730;51.512;7.504;2024-01-06T12:44:46;25.10;;;9.00;;
5414;SDS011;2730;51.512;7.504;2024-01-06T12:47:13;24.17;;;7.45;;
5414;SDS011;2730;51.512;7.504;2024-01-06T12:49:40;22.90;;;7.80;;
5414;SDS011;2730;51.512;7.504;2024-01-06T12:52:09;19.45;;;7.95;;
5414;SDS011;2730;51.512;7.504;2024-01-06T12:54:36;17.27;;;6.85;;
5414;SDS011;2730;51.512;7.504;2024-01-06T12:57:03;27.70;;;8.82;;
5414;SDS011;2730;51.512;7.504;2024-01-06T12:59:30;22.02;;;8.40;;
5414;SDS011;2730;51.512;7.504;2024-01-06T13:01:57;19.65;;;7.05;;
5414;SDS011;2730;51.512;7.504;2024-01-06T13:04:24;15.55;;;6.38;;
5414;SDS011;2730;51.512;7.504;2024-01-06T13:06:51;16.05;;;5.60;;
5414;SDS011;2730;51.512;7.504;2024-01-06T13:09:20;14.38;;;5.68;;
5414;SDS011;2730;51.512;7.504;2024-01-06T13:11:49;14.07;;;4.82;;
5414;SDS011;2730;51.512;7.504;2024-01-06T13:14:16;20.02;;;5.82;;
5414;SDS011;2730;51.512;7.504;2024-01-06T13:16:43;9.73;;;4.95;;
5414;SDS011;2730;51.512;7.504;2024-01-06T13:19:10;10.57;;;4.65;;
5414;SDS011;2730;51.512;7.504;2024-01-06T13:21:40;19.23;;;7.32;;
5414;SDS011;2730;51.512;7.504;2024-01-06T13:24:07;11.10;;;5.93;;
5414;SDS011;2730;51.512;7.504;2024-01-06T13:26:42;8.57;;;4.97;;
5414;SDS011;2730;51.512;7.504;2024-01-06T13:29:09;14.70;;;4.72;;
5414;SDS011;2730;51.512;7.504;2024-01-06T13:31:36;13.20;;;5.10;;
5414;SDS011;2730;51.512;7.504;2024-01-06T13:34:04;12.38;;;4.80;;
5414;SDS011;2730;51.512;7.504;2024-01-06T13:36:33;16.63;;;6.80;;
5414;SDS011;2730;51.512;7.504;2024-01-06T13:39:01;13.20;;;5.18;;
5414;SDS011;2730;51.512;7.504;2024-01-06T13:41:29;17.98;;;6.82;;
5414;SDS011;2730;51.512;7.504;2024-01-06T13:43:57;10.52;;;5.88;;
5414;SDS011;2730;51.512;7.504;2024-01-06T13:46:24;8.07;;;5.13;;
5414;SDS011;2730;51.512;7.504;2024-01-06T13:48:51;8.65;;;3.63;;
5414;SDS011;2730;51.512;7.504;2024-01-06T13:51:17;15.00;;;4.93;;
5414;SDS011;2730;51.512;7.504;2024-01-06T13:53:44;10.30;;;4.15;;
5414;SDS011;2730;51.512;7.504;2024-01-06T13:56:12;18.10;;;5.20;;
5414;SDS011;2730;51.512;7.504;2024-01-06T13:58:38;16.58;;;6.30;;
5414;SDS011;2730;51.512;7.504;2024-01-06T14:01:08;9.52;;;4.50;;
5414;SDS011;2730;51.512;7.504;2024-01-06T14:03:36;17.25;;;5.50;;
5414;SDS011;2730;51.512;7.504;2024-01-06T14:06:05;13.40;;;5.95;;
5414;SDS011;2730;51.512;7.504;2024-01-06T14:08:32;9.85;;;4.65;;
5414;SDS011;2730;51.512;7.504;2024-01-06T14:10:59;13.38;;;3.95;;
5414;SDS011;2730;51.512;7.504;2024-01-06T14:13:26;9.07;;;4.43;;
5414;SDS011;2730;51.512;7.504;2024-01-06T14:15:54;13.68;;;5.38;;
5414;SDS011;2730;51.512;7.504;2024-01-06T14:18:23;11.40;;;4.93;;
5414;SDS011;2730;51.512;7.504;2024-01-06T14:20:50;14.40;;;4.75;;
5414;SDS011;2730;51.512;7.504;2024-01-06T14:23:17;12.45;;;4.32;;
5414;SDS011;2730;51.512;7.504;2024-01-06T14:25:49;8.43;;;3.85;;
5414;SDS011;2730;51.512;7.504;2024-01-06T14:28:17;11.70;;;4.00;;
5414;SDS011;2730;51.512;7.504;2024-01-06T14:30:44;11.32;;;4.30;;
5414;SDS011;2730;51.512;7.504;2024-01-06T14:33:11;15.35;;;5.00;;
5414;SDS011;2730;51.512;7.504;2024-01-06T14:35:39;13.95;;;5.18;;
5414;SDS011;2730;51.512;7.504;2024-01-06T14:38:07;11.70;;;5.32;;
5414;SDS011;2730;51.512;7.504;2024-01-06T14:40:38;16.83;;;6.72;;
5414;SDS011;2730;51.512;7.504;2024-01-06T14:43:05;14.85;;;5.55;;
5414;SDS011;2730;51.512;7.504;2024-01-06T14:45:35;19.50;;;6.38;;
5414;SDS011;2730;51.512;7.504;2024-01-06T14:48:04;12.68;;;5.70;;
5414;SDS011;2730;51.512;7.504;2024-01-06T14:50:33;14.93;;;5.72;;
5414;SDS011;2730;51.512;7.504;2024-01-06T14:53:03;13.73;;;4.72;;
5414;SDS011;2730;51.512;7.504;2024-01-06T14:55:29;14.15;;;6.10;;
5414;SDS011;2730;51.512;7.504;2024-01-06T14:57:56;11.35;;;5.40;;
5414;SDS011;2730;51.512;7.504;2024-01-06T15:00:23;8.82;;;5.30;;
5414;SDS011;2730;51.512;7.504;2024-01-06T15:02:50;13.18;;;4.80;;
5414;SDS011;2730;51.512;7.504;2024-01-06T15:05:18;14.50;;;5.45;;
5414;SDS011;2730;51.512;7.504;2024-01-06T15:07:45;15.25;;;6.32;;